createdAt,value
2019-01-15T00:00:14.291Z,1.95
2019-01-15T00:01:14.303Z,1.93
2019-01-15T00:02:14.279Z,1.91
2019-01-15T00:03:14.317Z,1.91
2019-01-15T00:04:14.249Z,2.02
2019-01-15T00:05:14.230Z,2.05
2019-01-15T00:06:14.228Z,2.03
2019-01-15T00:07:14.247Z,2.05
2019-01-15T00:08:14.198Z,2.05
2019-01-15T00:09:14.189Z,2.07
2019-01-15T00:10:14.179Z,2.06
2019-01-15T00:11:14.172Z,2.05
2019-01-15T00:12:14.161Z,2.03
2019-01-15T00:13:14.161Z,2.06
2019-01-15T00:14:14.137Z,2.03
2019-01-15T00:15:14.124Z,2.07
2019-01-15T00:16:14.113Z,2.05
2019-01-15T00:17:14.107Z,2.09
2019-01-15T00:18:14.117Z,2.10
2019-01-15T00:19:14.083Z,2.12
2019-01-15T00:20:14.073Z,2.12
2019-01-15T00:21:14.063Z,2.12
2019-01-15T00:22:14.055Z,2.17
2019-01-15T00:23:14.053Z,2.07
2019-01-15T00:24:14.028Z,2.09
2019-01-15T00:25:14.019Z,2.14
2019-01-15T00:26:14.010Z,2.06
2019-01-15T00:27:13.998Z,2.21
2019-01-15T00:28:14.007Z,2.07
2019-01-15T00:29:13.983Z,2.17
2019-01-15T00:30:13.966Z,2.10
2019-01-15T00:31:13.956Z,2.14
2019-01-15T00:32:13.957Z,2.07
2019-01-15T00:33:13.938Z,2.17
2019-01-15T00:34:13.928Z,2.18
2019-01-15T00:35:13.923Z,2.18
2019-01-15T00:36:13.901Z,2.14
2019-01-15T00:37:13.909Z,2.16
2019-01-15T00:38:13.879Z,2.25
2019-01-15T00:39:13.885Z,2.06
2019-01-15T00:40:13.863Z,2.20
2019-01-15T00:41:13.850Z,2.23
2019-01-15T00:42:15.371Z,2.20
2019-01-15T00:43:13.830Z,2.21
2019-01-15T00:44:13.845Z,2.14
2019-01-15T00:45:13.809Z,2.16
2019-01-15T00:46:13.793Z,2.23
2019-01-15T00:47:13.799Z,2.24
2019-01-15T00:48:13.771Z,2.20
2019-01-15T00:49:29.617Z,2.16
2019-01-15T00:50:13.800Z,2.20
2019-01-15T00:51:13.737Z,2.10
2019-01-15T00:52:13.736Z,2.18
2019-01-15T00:53:13.725Z,2.21
2019-01-15T00:54:13.716Z,2.25
2019-01-15T00:55:13.714Z,2.21
2019-01-15T00:56:13.687Z,2.18
2019-01-15T00:57:13.682Z,2.25
2019-01-15T00:58:13.675Z,2.20
2019-01-15T00:59:13.655Z,2.18
2019-01-15T01:00:13.664Z,2.18
2019-01-15T01:01:13.637Z,2.17
2019-01-15T01:02:13.624Z,2.17
2019-01-15T01:03:13.657Z,2.24
2019-01-15T01:04:14.214Z,2.17
2019-01-15T01:05:13.671Z,2.25
2019-01-15T01:06:13.579Z,2.17
2019-01-15T01:07:13.567Z,2.24
2019-01-15T01:08:13.563Z,2.21
2019-01-15T01:09:13.551Z,2.17
2019-01-15T01:10:13.565Z,2.24
2019-01-15T01:11:13.525Z,2.23
2019-01-15T01:12:13.515Z,2.31
2019-01-15T01:13:13.532Z,2.24
2019-01-15T01:14:13.496Z,2.24
2019-01-15T01:15:13.495Z,2.25
2019-01-15T01:16:13.497Z,2.30
2019-01-15T01:17:13.467Z,2.21
2019-01-15T01:18:13.454Z,2.17
2019-01-15T01:19:13.458Z,2.25
2019-01-15T01:20:13.433Z,2.20
2019-01-15T01:21:13.440Z,2.24
2019-01-15T01:22:13.411Z,2.27
2019-01-15T01:23:13.397Z,2.24
2019-01-15T01:24:13.399Z,2.25
2019-01-15T01:25:13.377Z,2.27
2019-01-15T01:26:13.382Z,2.21
2019-01-15T01:27:13.356Z,2.23
2019-01-15T01:28:13.347Z,2.25
2019-01-15T01:29:13.334Z,2.20
2019-01-15T01:30:13.323Z,2.28
2019-01-15T01:31:13.349Z,2.25
2019-01-15T01:32:13.311Z,2.30
2019-01-15T01:33:13.294Z,2.28
2019-01-15T01:34:13.279Z,2.28
2019-01-15T01:35:13.270Z,2.38
2019-01-15T01:36:13.273Z,2.28
2019-01-15T01:37:13.272Z,2.28
2019-01-15T01:38:13.242Z,2.35
2019-01-15T01:39:13.232Z,2.39
2019-01-15T01:40:13.220Z,2.34
2019-01-15T01:41:13.205Z,2.36
2019-01-15T01:42:13.219Z,2.38
2019-01-15T01:43:13.192Z,2.27
2019-01-15T01:44:13.184Z,2.41
2019-01-15T01:45:13.169Z,2.39
2019-01-15T01:46:13.155Z,2.36
2019-01-15T01:47:13.167Z,2.42
2019-01-15T01:48:13.135Z,2.41
2019-01-15T01:49:15.659Z,2.38
2019-01-15T01:50:13.111Z,2.35
2019-01-15T01:51:13.107Z,2.38
2019-01-15T01:52:13.138Z,2.34
2019-01-15T01:53:13.081Z,2.39
2019-01-15T01:54:13.085Z,2.38
2019-01-15T01:55:13.059Z,2.36
2019-01-15T01:56:13.062Z,2.34
2019-01-15T01:57:13.669Z,2.34
2019-01-15T01:58:13.049Z,2.38
2019-01-15T01:59:13.019Z,2.36
2019-01-15T02:00:13.009Z,2.38
2019-01-15T02:01:13.023Z,2.38
2019-01-15T02:02:16.638Z,2.42
2019-01-15T02:03:13.009Z,2.42
2019-01-15T02:04:12.963Z,2.39
2019-01-15T02:05:12.950Z,2.35
2019-01-15T02:06:12.942Z,2.39
2019-01-15T02:07:12.945Z,2.36
2019-01-15T02:08:12.915Z,2.39
2019-01-15T02:09:13.269Z,2.42
2019-01-15T02:10:12.901Z,2.41
2019-01-15T02:11:28.310Z,2.39
2019-01-15T02:12:14.561Z,2.42
2019-01-15T02:13:12.966Z,2.43
2019-01-15T02:14:12.870Z,2.39
2019-01-15T02:15:12.845Z,2.46
2019-01-15T02:16:12.834Z,2.36
2019-01-15T02:17:12.827Z,2.52
2019-01-15T02:18:12.821Z,2.52
2019-01-15T02:19:12.831Z,2.57
2019-01-15T02:20:12.790Z,2.49
2019-01-15T02:21:12.785Z,2.48
2019-01-15T02:22:12.773Z,2.49
2019-01-15T02:23:12.759Z,2.59
2019-01-15T02:24:12.810Z,2.53
2019-01-15T02:25:37.670Z,2.57
2019-01-15T02:26:19.702Z,2.61
2019-01-15T02:27:12.725Z,2.60
2019-01-15T02:28:12.704Z,2.60
2019-01-15T02:29:12.698Z,2.56
2019-01-15T02:30:12.709Z,2.53
2019-01-15T02:31:12.672Z,2.60
2019-01-15T02:32:12.664Z,2.59
2019-01-15T02:33:12.652Z,2.52
2019-01-15T02:34:12.642Z,2.56
2019-01-15T02:35:12.650Z,2.57
2019-01-15T02:36:12.617Z,2.61
2019-01-15T02:37:12.606Z,2.56
2019-01-15T02:38:14.633Z,2.45
2019-01-15T02:39:12.697Z,2.49
2019-01-15T02:40:12.599Z,2.52
2019-01-15T02:41:12.575Z,2.49
2019-01-15T02:43:13.614Z,2.49
2019-01-15T02:44:12.555Z,2.43
2019-01-15T02:45:12.537Z,2.45
2019-01-15T02:46:12.526Z,2.39
2019-01-15T02:47:12.514Z,2.38
2019-01-15T02:48:12.560Z,2.35
2019-01-15T02:49:12.487Z,2.24
2019-01-15T02:50:12.484Z,2.24
2019-01-15T02:51:14.654Z,2.27
2019-01-15T02:52:12.452Z,2.24
2019-01-15T02:53:12.442Z,2.23
2019-01-15T02:54:37.138Z,2.28
2019-01-15T02:55:12.537Z,2.24
2019-01-15T02:56:19.251Z,2.20
2019-01-15T02:57:12.406Z,2.20
2019-01-15T02:58:12.391Z,2.25
2019-01-15T02:59:12.389Z,2.21
2019-01-15T03:00:12.380Z,2.23
2019-01-15T03:01:12.351Z,2.17
2019-01-15T03:02:12.340Z,2.21
2019-01-15T03:03:12.339Z,2.17
2019-01-15T03:04:12.332Z,2.24
2019-01-15T03:05:12.355Z,2.21
2019-01-15T03:06:27.178Z,2.17
2019-01-15T03:07:12.291Z,2.16
2019-01-15T03:08:12.280Z,2.12
2019-01-15T03:09:12.268Z,2.17
2019-01-15T03:10:12.281Z,2.10
2019-01-15T03:11:12.249Z,2.12
2019-01-15T03:12:12.246Z,2.10
2019-01-15T03:13:12.229Z,2.09
2019-01-15T03:14:12.218Z,2.10
2019-01-15T03:15:12.230Z,2.12
2019-01-15T03:16:12.204Z,2.07
2019-01-15T03:17:12.188Z,2.07
2019-01-15T03:18:12.176Z,2.06
2019-01-15T03:19:12.163Z,2.02
2019-01-15T03:20:34.634Z,2.02
2019-01-15T03:21:31.732Z,1.98
2019-01-15T03:23:21.746Z,1.98
2019-01-15T03:24:21.728Z,2.05
2019-01-15T03:25:21.721Z,1.99
2019-01-15T03:26:21.726Z,2.00
2019-01-15T03:27:21.702Z,1.99
2019-01-15T03:28:21.721Z,1.98
2019-01-15T03:29:21.682Z,1.91
2019-01-15T03:30:21.675Z,1.93
2019-01-15T03:31:21.673Z,1.99
2019-01-15T03:32:21.649Z,1.90
2019-01-15T03:33:21.652Z,2.02
2019-01-15T03:34:21.622Z,1.95
2019-01-15T03:35:21.681Z,1.99
2019-01-15T03:36:21.626Z,1.95
2019-01-15T03:37:21.615Z,1.93
2019-01-15T03:38:21.582Z,1.99
2019-01-15T03:39:21.975Z,1.95
2019-01-15T03:40:48.676Z,1.99
2019-01-15T03:41:21.564Z,2.00
2019-01-15T03:42:21.541Z,1.91
2019-01-15T03:43:21.533Z,1.91
2019-01-15T03:44:21.523Z,1.95
2019-01-15T03:45:21.518Z,1.93
2019-01-15T03:46:21.531Z,1.99
2019-01-15T03:47:21.493Z,2.03
2019-01-15T03:48:21.498Z,2.03
2019-01-15T03:49:21.468Z,2.06
2019-01-15T03:50:21.464Z,2.03
2019-01-15T03:51:21.472Z,2.07
2019-01-15T03:52:21.438Z,2.05
2019-01-15T03:53:43.090Z,2.03
2019-01-15T03:55:30.008Z,2.07
2019-01-15T03:56:30.014Z,2.07
2019-01-15T03:57:29.990Z,2.09
2019-01-15T03:58:30.045Z,2.09
2019-01-15T03:59:29.966Z,2.09
2019-01-15T04:00:29.954Z,2.12
2019-01-15T04:01:29.963Z,2.21
2019-01-15T04:03:30.993Z,2.17
2019-01-15T04:04:29.927Z,2.23
2019-01-15T04:05:29.911Z,2.24
2019-01-15T04:07:30.886Z,2.23
2019-01-15T04:08:29.886Z,2.24
2019-01-15T04:09:29.890Z,2.21
2019-01-15T04:10:29.855Z,2.24
2019-01-15T04:11:29.861Z,2.24
2019-01-15T04:12:29.838Z,2.28
2019-01-15T04:13:29.820Z,2.24
2019-01-15T04:14:29.822Z,2.28
2019-01-15T04:15:29.797Z,2.27
2019-01-15T04:16:29.851Z,2.35
2019-01-15T04:17:29.776Z,2.31
2019-01-15T04:18:29.768Z,2.35
2019-01-15T04:19:29.765Z,2.38
2019-01-15T04:20:30.386Z,2.35
2019-01-15T04:21:29.768Z,2.41
2019-01-15T04:22:29.726Z,2.39
2019-01-15T04:23:29.714Z,2.36
2019-01-15T04:24:29.707Z,2.48
2019-01-15T04:25:29.697Z,2.52
2019-01-15T04:26:29.688Z,2.52
2019-01-15T04:27:29.691Z,2.52
2019-01-15T04:28:29.661Z,2.49
2019-01-15T04:29:29.654Z,2.43
2019-01-15T04:30:29.640Z,2.57
2019-01-15T04:31:29.648Z,2.56
2019-01-15T04:32:40.961Z,2.57
2019-01-15T04:33:29.610Z,2.54
2019-01-15T04:34:29.600Z,2.56
2019-01-15T04:35:29.600Z,2.54
2019-01-15T04:36:29.581Z,2.60
2019-01-15T04:37:29.589Z,2.57
2019-01-15T04:38:29.558Z,2.59
2019-01-15T04:39:29.546Z,2.67
2019-01-15T04:40:29.542Z,2.71
2019-01-15T04:41:29.536Z,2.71
2019-01-15T04:42:30.123Z,2.64
2019-01-15T04:43:29.510Z,2.72
2019-01-15T04:44:29.506Z,2.69
2019-01-15T04:45:33.060Z,2.72
2019-01-15T04:47:30.554Z,2.74
2019-01-15T04:48:50.454Z,2.75
2019-01-15T04:49:50.448Z,2.79
2019-01-15T04:50:50.434Z,2.77
2019-01-15T04:51:50.423Z,2.81
2019-01-15T04:54:46.559Z,2.84
2019-01-15T04:55:46.540Z,2.84
2019-01-15T04:56:46.540Z,2.87
2019-01-15T04:57:46.540Z,2.90
2019-01-15T04:58:46.519Z,2.97
2019-01-15T04:59:46.501Z,2.92
2019-01-15T05:00:46.491Z,2.95
2019-01-15T05:01:46.482Z,2.93
2019-01-15T05:02:46.495Z,2.93
2019-01-15T05:03:46.464Z,2.90
2019-01-15T05:04:46.454Z,2.89
2019-01-15T05:05:46.462Z,2.93
2019-01-15T05:06:46.428Z,2.93
2019-01-15T05:08:01.024Z,2.95
2019-01-15T05:08:46.414Z,2.90
2019-01-15T05:09:46.397Z,2.89
2019-01-15T05:10:46.391Z,2.89
2019-01-15T05:11:46.375Z,2.89
2019-01-15T05:12:46.388Z,2.99
2019-01-15T05:13:46.358Z,3.03
2019-01-15T05:14:46.345Z,3.02
2019-01-15T05:15:46.382Z,3.02
2019-01-15T05:16:46.328Z,3.13
2019-01-15T05:17:46.340Z,2.97
2019-01-15T05:18:46.302Z,3.11
2019-01-15T05:19:46.295Z,3.10
2019-01-15T05:20:46.283Z,3.10
2019-01-15T05:21:46.280Z,3.11
2019-01-15T05:22:46.296Z,3.13
2019-01-15T05:23:46.255Z,3.10
2019-01-15T05:24:46.245Z,3.17
2019-01-15T05:25:46.237Z,3.13
2019-01-15T05:26:46.229Z,3.11
2019-01-15T05:27:50.475Z,3.08
2019-01-15T05:28:46.245Z,3.11
2019-01-15T05:29:46.245Z,3.15
2019-01-15T05:30:47.032Z,3.10
2019-01-15T05:31:46.185Z,3.17
2019-01-15T05:33:15.120Z,3.18
2019-01-15T05:33:46.161Z,3.14
2019-01-15T05:34:54.249Z,3.15
2019-01-15T05:35:47.205Z,3.14
2019-01-15T05:36:46.124Z,3.11
2019-01-15T05:37:46.112Z,3.10
2019-01-15T05:38:46.121Z,3.15
2019-01-15T05:39:46.095Z,3.14
2019-01-15T05:40:46.082Z,3.15
2019-01-15T05:41:46.061Z,3.17
2019-01-15T05:42:46.052Z,3.21
2019-01-15T05:43:46.065Z,3.18
2019-01-15T05:44:46.036Z,3.29
2019-01-15T05:45:46.026Z,3.33
2019-01-15T05:46:46.016Z,3.24
2019-01-15T05:47:46.001Z,3.28
2019-01-15T05:48:46.011Z,3.32
2019-01-15T05:49:45.983Z,3.35
2019-01-15T05:50:45.975Z,3.35
2019-01-15T05:51:46.527Z,3.35
2019-01-15T05:52:46.201Z,3.31
2019-01-15T05:53:45.983Z,3.36
2019-01-15T05:54:45.941Z,3.32
2019-01-15T05:55:45.918Z,3.31
2019-01-15T05:56:45.914Z,3.26
2019-01-15T05:57:45.913Z,3.32
2019-01-15T05:58:45.936Z,3.29
2019-01-15T05:59:45.874Z,3.33
2019-01-15T06:00:45.865Z,3.33
2019-01-15T06:01:45.855Z,3.29
2019-01-15T06:02:45.847Z,3.45
2019-01-15T06:03:45.836Z,3.40
2019-01-15T06:04:45.848Z,3.40
2019-01-15T06:05:45.826Z,3.36
2019-01-15T06:06:45.824Z,3.50
2019-01-15T06:07:45.804Z,3.45
2019-01-15T06:08:45.794Z,3.36
2019-01-15T06:09:45.795Z,3.43
2019-01-15T06:10:45.759Z,3.40
2019-01-15T06:11:45.757Z,3.51
2019-01-15T06:12:45.777Z,3.52
2019-01-15T06:13:45.731Z,3.40
2019-01-15T06:14:45.733Z,3.48
2019-01-15T06:15:45.709Z,3.43
2019-01-15T06:16:45.698Z,3.54
2019-01-15T06:17:45.691Z,3.43
2019-01-15T06:18:45.702Z,3.48
2019-01-15T06:19:45.681Z,3.43
2019-01-15T06:20:45.677Z,3.54
2019-01-15T06:21:46.489Z,3.45
2019-01-15T06:22:45.636Z,3.55
2019-01-15T06:23:45.627Z,3.48
2019-01-15T06:24:45.743Z,3.55
2019-01-15T06:25:46.526Z,3.39
2019-01-15T06:26:45.591Z,3.51
2019-01-15T06:27:45.589Z,3.42
2019-01-15T06:28:45.571Z,3.55
2019-01-15T06:29:45.595Z,3.43
2019-01-15T06:30:45.573Z,3.51
2019-01-15T06:31:45.551Z,3.40
2019-01-15T06:32:45.530Z,3.50
2019-01-15T06:33:45.516Z,3.54
2019-01-15T06:34:45.534Z,3.51
2019-01-15T06:35:45.497Z,3.48
2019-01-15T06:36:45.498Z,3.52
2019-01-15T06:37:45.528Z,3.42
2019-01-15T06:38:45.463Z,3.51
2019-01-15T06:39:45.474Z,3.52
2019-01-15T06:40:45.443Z,3.51
2019-01-15T06:41:45.444Z,3.45
2019-01-15T06:42:45.446Z,3.45
2019-01-15T06:43:49.989Z,3.51
2019-01-15T06:44:45.423Z,3.52
2019-01-15T06:45:45.405Z,3.47
2019-01-15T06:46:45.382Z,3.47
2019-01-15T06:47:45.376Z,3.43
2019-01-15T06:48:45.363Z,3.54
2019-01-15T06:49:45.393Z,3.51
2019-01-15T06:50:45.339Z,3.51
2019-01-15T06:51:45.331Z,3.45
2019-01-15T06:52:45.319Z,3.52
2019-01-15T06:53:45.311Z,3.54
2019-01-15T06:54:45.334Z,3.48
2019-01-15T06:55:45.299Z,3.42
2019-01-15T06:56:45.277Z,3.51
2019-01-15T06:57:45.266Z,3.43
2019-01-15T06:58:45.255Z,3.48
2019-01-15T06:59:45.337Z,3.45
2019-01-15T07:00:45.253Z,3.48
2019-01-15T07:01:45.223Z,3.50
2019-01-15T07:02:45.311Z,3.45
2019-01-15T07:03:46.491Z,3.42
2019-01-15T07:04:45.258Z,3.48
2019-01-15T07:05:45.327Z,3.42
2019-01-15T07:09:46.999Z,3.45
2019-01-15T07:10:45.309Z,3.47
2019-01-15T07:11:45.215Z,3.51
2019-01-15T07:13:48.092Z,3.51
2019-01-15T07:14:45.165Z,3.45
2019-01-15T07:15:45.285Z,3.48
2019-01-15T07:16:47.165Z,3.43
2019-01-15T07:17:45.129Z,3.48
2019-01-15T07:20:47.671Z,3.48
2019-01-15T07:21:45.118Z,3.48
2019-01-15T07:22:45.099Z,3.47
2019-01-15T07:24:53.622Z,3.48
2019-01-15T07:28:04.286Z,3.52
2019-01-15T07:29:03.271Z,3.55
2019-01-15T07:30:03.267Z,3.43
2019-01-15T07:31:03.287Z,3.51
2019-01-15T07:32:05.246Z,3.42
2019-01-15T07:34:04.227Z,3.42
2019-01-15T07:35:03.243Z,3.50
2019-01-15T07:36:06.228Z,3.52
2019-01-15T07:38:04.183Z,3.43
2019-01-15T07:39:03.167Z,3.45
2019-01-15T07:40:03.177Z,3.43
2019-01-15T07:41:05.606Z,3.52
2019-01-15T07:42:03.203Z,3.47
2019-01-15T07:45:25.109Z,3.45
2019-01-15T07:46:03.332Z,3.54
2019-01-15T07:47:07.111Z,3.60
2019-01-15T07:48:07.140Z,3.50
2019-01-15T07:49:05.076Z,3.58
2019-01-15T07:52:17.355Z,3.60
2019-01-15T07:52:56.331Z,3.52
2019-01-15T07:53:56.321Z,3.57
2019-01-15T07:54:56.307Z,3.55
2019-01-15T07:55:56.299Z,3.54
2019-01-15T07:56:56.305Z,3.60
2019-01-15T07:57:57.777Z,3.62
2019-01-15T07:58:56.283Z,3.65
2019-01-15T07:59:56.266Z,3.60
2019-01-15T08:00:56.246Z,3.62
2019-01-15T08:01:56.254Z,3.65
2019-01-15T08:02:56.233Z,3.66
2019-01-15T08:03:56.222Z,3.70
2019-01-15T08:05:57.253Z,3.66
2019-01-15T08:06:56.271Z,3.58
2019-01-15T08:07:56.171Z,3.58
2019-01-15T08:08:56.157Z,3.60
2019-01-15T08:09:56.156Z,3.65
2019-01-15T08:10:57.059Z,3.55
2019-01-15T08:11:56.127Z,3.61
2019-01-15T08:12:56.133Z,3.58
2019-01-15T08:13:56.107Z,3.66
2019-01-15T08:14:56.105Z,3.60
2019-01-15T08:15:56.494Z,3.66
2019-01-15T08:16:56.071Z,3.65
2019-01-15T08:19:05.797Z,3.66
2019-01-15T08:20:05.775Z,3.65
2019-01-15T08:21:05.771Z,3.62
2019-01-15T08:22:05.777Z,3.65
2019-01-15T08:23:05.764Z,3.62
2019-01-15T08:24:05.731Z,3.62
2019-01-15T08:25:05.725Z,3.60
2019-01-15T08:26:05.717Z,3.62
2019-01-15T08:27:05.702Z,3.60
2019-01-15T08:28:05.717Z,3.58
2019-01-15T08:29:05.684Z,3.66
2019-01-15T08:30:05.671Z,3.61
2019-01-15T08:31:05.659Z,3.66
2019-01-15T08:32:05.661Z,3.61
2019-01-15T08:33:05.640Z,3.61
2019-01-15T08:34:05.643Z,3.65
2019-01-15T08:35:05.619Z,3.66
2019-01-15T08:36:05.603Z,3.62
2019-01-15T08:37:05.608Z,3.65
2019-01-15T08:38:05.592Z,3.66
2019-01-15T08:39:05.616Z,3.62
2019-01-15T08:40:05.563Z,3.66
2019-01-15T08:41:05.556Z,3.70
2019-01-15T08:42:05.544Z,3.60
2019-01-15T08:43:05.552Z,3.72
2019-01-15T08:44:05.544Z,3.72
2019-01-15T08:45:05.507Z,3.69
2019-01-15T08:46:05.510Z,3.65
2019-01-15T08:47:05.491Z,3.62
2019-01-15T08:48:05.510Z,3.69
2019-01-15T08:49:05.490Z,3.72
2019-01-15T08:50:05.470Z,3.68
2019-01-15T08:51:05.447Z,3.65
2019-01-15T08:52:05.434Z,3.69
2019-01-15T08:53:05.424Z,3.70
2019-01-15T08:54:05.438Z,3.73
2019-01-15T08:55:05.405Z,3.62
2019-01-15T08:56:05.392Z,3.66
2019-01-15T08:57:05.382Z,3.65
2019-01-15T08:58:05.373Z,3.68
2019-01-15T08:59:05.380Z,3.70
2019-01-15T09:00:05.350Z,3.68
2019-01-15T09:01:05.342Z,3.66
2019-01-15T09:02:05.333Z,3.69
2019-01-15T09:03:05.315Z,3.69
2019-01-15T09:04:05.326Z,3.69
2019-01-15T09:05:05.305Z,3.70
2019-01-15T09:06:05.288Z,3.70
2019-01-15T09:07:05.279Z,3.60
2019-01-15T09:08:05.265Z,3.68
2019-01-15T09:09:05.270Z,3.61
2019-01-15T09:10:05.249Z,3.62
2019-01-15T09:11:05.246Z,3.60
2019-01-15T09:12:05.224Z,3.62
2019-01-15T09:13:05.221Z,3.60
2019-01-15T09:14:05.216Z,3.57
2019-01-15T09:15:05.192Z,3.62
2019-01-15T09:16:05.185Z,3.65
2019-01-15T09:17:10.941Z,3.60
2019-01-15T09:18:06.157Z,3.54
2019-01-15T09:19:05.182Z,3.50
2019-01-15T09:20:05.138Z,3.50
2019-01-15T09:21:05.128Z,3.39
2019-01-15T09:22:05.120Z,3.29
2019-01-15T09:23:05.120Z,3.33
2019-01-15T09:24:05.125Z,3.32
2019-01-15T09:25:05.086Z,3.31
2019-01-15T09:26:05.080Z,3.28
2019-01-15T09:27:05.063Z,3.28
2019-01-15T09:28:05.058Z,3.31
2019-01-15T09:29:05.078Z,3.26
2019-01-15T09:30:05.059Z,3.32
2019-01-15T09:31:05.028Z,3.26
2019-01-15T09:32:05.021Z,3.32
2019-01-15T09:33:05.001Z,3.26
2019-01-15T09:34:05.013Z,3.24
2019-01-15T09:35:04.982Z,3.18
2019-01-15T09:36:04.976Z,3.32
2019-01-15T09:37:04.958Z,3.21
2019-01-15T09:38:04.953Z,3.32
2019-01-15T09:39:04.968Z,3.32
2019-01-15T09:40:04.934Z,3.32
2019-01-15T09:41:04.923Z,3.29
2019-01-15T09:42:04.923Z,3.40
2019-01-15T09:43:04.896Z,3.48
2019-01-15T09:44:04.908Z,3.43
2019-01-15T09:45:04.885Z,3.51
2019-01-15T09:46:04.864Z,3.52
2019-01-15T09:47:04.862Z,3.52
2019-01-15T09:48:04.844Z,3.54
2019-01-15T09:49:04.870Z,3.47
2019-01-15T09:50:04.831Z,3.45
2019-01-15T09:51:04.813Z,3.47
2019-01-15T09:52:04.810Z,3.42
2019-01-15T09:53:04.792Z,3.42
2019-01-15T09:54:04.806Z,3.52
2019-01-15T09:55:04.771Z,3.47
2019-01-15T09:56:04.764Z,3.48
2019-01-15T09:57:04.764Z,3.50
2019-01-15T09:58:04.740Z,3.48
2019-01-15T09:59:05.729Z,3.57
2019-01-15T10:00:04.723Z,3.47
2019-01-15T10:01:04.710Z,3.55
2019-01-15T10:02:04.696Z,3.58
2019-01-15T10:03:04.692Z,3.55
2019-01-15T10:04:04.677Z,3.62
2019-01-15T10:05:04.685Z,3.51
2019-01-15T10:06:04.662Z,3.61
2019-01-15T10:07:04.648Z,3.60
2019-01-15T10:08:04.632Z,3.52
2019-01-15T10:09:04.623Z,3.52
2019-01-15T10:10:04.635Z,3.50
2019-01-15T10:11:04.606Z,3.33
2019-01-15T10:12:04.593Z,3.40
2019-01-15T10:13:04.588Z,3.39
2019-01-15T10:14:04.574Z,3.32
2019-01-15T10:15:04.585Z,3.33
2019-01-15T10:16:04.553Z,3.29
2019-01-15T10:17:04.536Z,3.35
2019-01-15T10:18:04.530Z,3.26
2019-01-15T10:19:04.520Z,3.29
2019-01-15T10:20:04.530Z,3.42
2019-01-15T10:21:04.496Z,3.43
2019-01-15T10:22:04.492Z,3.39
2019-01-15T10:23:04.474Z,3.40
2019-01-15T10:24:04.462Z,3.36
2019-01-15T10:25:04.511Z,3.45
2019-01-15T10:26:04.446Z,3.40
2019-01-15T10:27:04.435Z,3.45
2019-01-15T10:28:04.428Z,3.47
2019-01-15T10:29:04.416Z,3.47
2019-01-15T10:30:04.416Z,3.54
2019-01-15T10:31:04.394Z,3.45
2019-01-15T10:32:04.387Z,3.58
2019-01-15T10:33:04.369Z,3.61
2019-01-15T10:34:04.374Z,3.54
2019-01-15T10:35:04.380Z,3.58
2019-01-15T10:36:04.338Z,3.62
2019-01-15T10:37:04.327Z,3.62
2019-01-15T10:38:04.318Z,3.60
2019-01-15T10:39:04.308Z,3.70
2019-01-15T10:40:04.338Z,3.69
2019-01-15T10:41:04.285Z,3.68
2019-01-15T10:42:04.272Z,3.58
2019-01-15T10:43:04.264Z,3.65
2019-01-15T10:44:04.256Z,3.68
2019-01-15T10:45:04.250Z,3.78
2019-01-15T10:46:04.256Z,3.78
2019-01-15T10:47:04.221Z,3.87
2019-01-15T10:48:04.216Z,3.93
2019-01-15T10:49:04.202Z,3.88
2019-01-15T10:50:04.188Z,3.91
2019-01-15T10:51:04.193Z,3.88
2019-01-15T10:52:04.166Z,3.88
2019-01-15T10:53:04.156Z,3.91
2019-01-15T10:54:04.147Z,3.93
2019-01-15T10:55:04.149Z,3.93
2019-01-15T10:56:04.146Z,3.93
2019-01-15T10:57:04.171Z,3.94
2019-01-15T10:58:04.102Z,4.08
2019-01-15T10:59:04.101Z,3.98
2019-01-15T11:00:04.085Z,4.09
2019-01-15T11:01:04.091Z,4.08
2019-01-15T11:02:04.066Z,4.00
2019-01-15T11:03:04.062Z,4.08
2019-01-15T11:04:04.039Z,4.06
2019-01-15T11:05:04.029Z,4.08
2019-01-15T11:06:04.042Z,4.06
2019-01-15T11:07:04.029Z,4.08
2019-01-15T11:08:04.004Z,4.08
2019-01-15T11:09:03.987Z,4.08
2019-01-15T11:10:03.977Z,4.12
2019-01-15T11:11:03.975Z,4.05
2019-01-15T11:12:03.978Z,4.05
2019-01-15T11:13:03.952Z,3.96
2019-01-15T11:14:04.085Z,3.98
2019-01-15T11:15:03.926Z,4.05
2019-01-15T11:16:03.910Z,4.06
2019-01-15T11:17:03.915Z,4.06
2019-01-15T11:18:03.897Z,4.12
2019-01-15T11:19:03.882Z,4.16
2019-01-15T11:20:03.881Z,4.12
2019-01-15T11:21:03.860Z,4.11
2019-01-15T11:22:03.870Z,4.12
2019-01-15T11:23:03.836Z,4.08
2019-01-15T11:24:03.834Z,4.11
2019-01-15T11:25:03.821Z,4.11
2019-01-15T11:26:03.812Z,4.15
2019-01-15T11:27:03.839Z,4.09
2019-01-15T11:28:03.787Z,4.12
2019-01-15T11:29:03.777Z,4.15
2019-01-15T11:30:03.772Z,4.20
2019-01-15T11:31:03.757Z,4.16
2019-01-15T11:32:03.765Z,4.12
2019-01-15T11:33:03.735Z,4.12
2019-01-15T11:34:03.726Z,4.09
2019-01-15T11:35:03.706Z,4.05
2019-01-15T11:36:03.701Z,4.08
2019-01-15T11:37:03.723Z,4.02
2019-01-15T11:38:03.680Z,4.05
2019-01-15T11:39:03.668Z,4.06
2019-01-15T11:40:03.662Z,4.04
2019-01-15T11:41:03.649Z,3.97
2019-01-15T11:42:03.667Z,3.91
2019-01-15T11:43:03.634Z,3.91
2019-01-15T11:44:03.618Z,3.93
2019-01-15T11:45:03.923Z,3.88
2019-01-15T11:46:03.594Z,3.87
2019-01-15T11:47:03.598Z,3.87
2019-01-15T11:48:03.573Z,3.84
2019-01-15T11:49:03.577Z,3.86
2019-01-15T11:50:03.551Z,3.88
2019-01-15T11:51:03.543Z,3.94
2019-01-15T11:52:03.559Z,3.91
2019-01-15T11:53:03.519Z,3.93
2019-01-15T11:54:03.512Z,4.00
2019-01-15T11:55:03.507Z,3.91
2019-01-15T11:56:03.503Z,3.91
2019-01-15T11:57:03.493Z,3.93
2019-01-15T11:58:03.467Z,3.94
2019-01-15T12:00:13.067Z,3.94
2019-01-15T12:01:13.050Z,3.97
2019-01-15T12:02:13.072Z,4.04
2019-01-15T12:03:13.025Z,4.09
2019-01-15T12:04:13.020Z,4.08
2019-01-15T12:05:13.007Z,3.93
2019-01-15T12:06:12.987Z,4.06
2019-01-15T12:07:12.993Z,4.08
2019-01-15T12:08:12.984Z,4.11
2019-01-15T12:09:12.962Z,4.08
2019-01-15T12:10:12.945Z,4.12
2019-01-15T12:11:12.945Z,4.11
2019-01-15T12:12:12.924Z,4.20
2019-01-15T12:13:12.933Z,4.14
2019-01-15T12:14:12.902Z,4.23
2019-01-15T12:15:12.893Z,4.22
2019-01-15T12:16:12.886Z,4.27
2019-01-15T12:17:12.882Z,4.33
2019-01-15T12:18:12.885Z,4.33
2019-01-15T12:19:12.900Z,4.30
2019-01-15T12:20:12.841Z,4.36
2019-01-15T12:21:12.829Z,4.37
2019-01-15T12:22:12.824Z,4.41
2019-01-15T12:23:12.830Z,4.45
2019-01-15T12:24:12.796Z,4.48
2019-01-15T12:25:12.791Z,4.45
2019-01-15T12:26:12.774Z,4.48
2019-01-15T12:27:12.763Z,4.52
2019-01-15T12:28:12.770Z,4.52
2019-01-15T12:29:12.741Z,4.54
2019-01-15T12:30:12.731Z,4.58
2019-01-15T12:31:12.723Z,4.59
2019-01-15T12:32:12.716Z,4.59
2019-01-15T12:33:12.723Z,4.58
2019-01-15T12:34:12.692Z,4.59
2019-01-15T12:35:12.676Z,4.58
2019-01-15T12:36:12.669Z,4.50
2019-01-15T12:37:12.657Z,4.52
2019-01-15T12:38:12.669Z,4.48
2019-01-15T12:39:12.637Z,4.45
2019-01-15T12:40:12.631Z,4.52
2019-01-15T12:41:12.617Z,4.42
2019-01-15T12:42:12.601Z,4.37
2019-01-15T12:43:12.641Z,4.37
2019-01-15T12:44:12.585Z,4.41
2019-01-15T12:45:18.227Z,4.30
2019-01-15T12:46:13.559Z,4.30
2019-01-15T12:47:12.552Z,4.27
2019-01-15T12:48:12.558Z,4.27
2019-01-15T12:49:12.539Z,4.11
2019-01-15T12:50:12.516Z,4.11
2019-01-15T12:51:12.532Z,4.12
2019-01-15T12:52:12.494Z,4.11
2019-01-15T12:53:12.501Z,4.16
2019-01-15T12:54:12.496Z,4.12
2019-01-15T12:55:12.477Z,4.18
2019-01-15T12:56:12.455Z,4.16
2019-01-15T12:57:18.821Z,4.18
2019-01-15T12:58:13.455Z,4.14
2019-01-15T12:59:12.425Z,4.18
2019-01-15T13:00:13.960Z,4.16
2019-01-15T13:01:12.405Z,4.18
2019-01-15T13:02:12.390Z,4.14
2019-01-15T13:03:12.402Z,4.14
2019-01-15T13:04:12.400Z,4.14
2019-01-15T13:05:12.353Z,4.12
2019-01-15T13:06:12.357Z,4.15
2019-01-15T13:07:12.339Z,4.18
2019-01-15T13:08:12.326Z,4.12
2019-01-15T13:09:12.328Z,4.16
2019-01-15T13:10:12.303Z,4.14
2019-01-15T13:11:12.289Z,4.20
2019-01-15T13:12:12.294Z,4.11
2019-01-15T13:13:12.267Z,4.16
2019-01-15T13:14:12.286Z,4.18
2019-01-15T13:15:12.253Z,4.14
2019-01-15T13:16:12.234Z,4.16
2019-01-15T13:17:12.227Z,4.11
2019-01-15T13:18:12.218Z,4.22
2019-01-15T13:19:12.232Z,4.32
2019-01-15T13:20:12.205Z,4.24
2019-01-15T13:21:12.185Z,4.20
2019-01-15T13:22:12.182Z,4.20
2019-01-15T13:23:12.165Z,4.27
2019-01-15T13:24:12.167Z,4.23
2019-01-15T13:25:12.148Z,4.30
2019-01-15T13:26:12.130Z,4.27
2019-01-15T13:27:12.121Z,4.30
2019-01-15T13:28:12.113Z,4.27
2019-01-15T13:29:12.112Z,4.26
2019-01-15T13:30:12.087Z,4.24
2019-01-15T13:31:12.082Z,4.27
2019-01-15T13:32:12.062Z,4.30
2019-01-15T13:33:12.994Z,4.29
2019-01-15T13:34:12.061Z,4.26
2019-01-15T13:35:12.036Z,4.29
2019-01-15T13:36:12.078Z,4.27
2019-01-15T13:37:12.027Z,4.36
2019-01-15T13:38:12.005Z,4.26
2019-01-15T13:39:12.005Z,4.32
2019-01-15T13:40:11.994Z,4.33
2019-01-15T13:41:11.969Z,4.32
2019-01-15T13:42:11.958Z,4.34
2019-01-15T13:43:11.991Z,4.32
2019-01-15T13:44:11.998Z,4.36
2019-01-15T13:45:11.971Z,4.37